sensor_id;sensor_type;location;lat;lon;timestamp;pressure;altitude;pressure_sealevel;temperature;humidity
64792;BME280;51226;47.504;19.074;2023-02-18T00:01:32;100509.69;;;13.23;58.31
64792;BME280;51226;47.504;19.074;2023-02-18T00:04:35;100514.91;;;13.23;58.52
64792;BME280;51226;47.504;19.074;2023-02-18T00:07:38;100507.25;;;13.29;58.45
64792;BME280;51226;47.504;19.074;2023-02-18T00:10:42;100499.25;;;13.24;58.76
64792;BME280;51226;47.504;19.074;2023-02-18T00:13:55;100496.81;;;13.30;58.78
64792;BME280;51226;47.504;19.074;2023-02-18T00:16:59;100486.84;;;13.47;58.50
64792;BME280;51226;47.504;19.074;2023-02-18T00:20:02;100480.41;;;13.36;58.87
64792;BME280;51226;47.504;19.074;2023-02-18T00:23:06;100477.03;;;13.40;58.82
64792;BME280;51226;47.504;19.074;2023-02-18T00:26:13;100484.09;;;13.43;58.87
64792;BME280;51226;47.504;19.074;2023-02-18T00:29:18;100473.84;;;13.50;58.67
64792;BME280;51226;47.504;19.074;2023-02-18T00:32:22;100471.22;;;13.50;58.80
64792;BME280;51226;47.504;19.074;2023-02-18T00:35:25;100471.97;;;13.46;59.03
64792;BME280;51226;47.504;19.074;2023-02-18T00:38:28;100478.81;;;13.41;59.29
64792;BME280;51226;47.504;19.074;2023-02-18T00:41:33;100454.47;;;13.45;59.22
64792;BME280;51226;47.504;19.074;2023-02-18T00:44:35;100460.81;;;13.53;59.01
64792;BME280;51226;47.504;19.074;2023-02-18T00:47:38;100470.03;;;13.39;59.63
64792;BME280;51226;47.504;19.074;2023-02-18T00:50:41;100473.50;;;13.40;59.56
64792;BME280;51226;47.504;19.074;2023-02-18T00:53:44;100464.97;;;13.45;59.38
64792;BME280;51226;47.504;19.074;2023-02-18T00:56:47;100466.06;;;13.53;59.20
64792;BME280;51226;47.504;19.074;2023-02-18T00:59:50;100475.97;;;13.65;58.84
64792;BME280;51226;47.504;19.074;2023-02-18T01:02:52;100465.19;;;13.55;59.12
64792;BME280;51226;47.504;19.074;2023-02-18T01:05:57;100458.31;;;13.58;59.15
64792;BME280;51226;47.504;19.074;2023-02-18T01:08:59;100468.97;;;13.64;58.93
64792;BME280;51226;47.504;19.074;2023-02-18T01:12:04;100439.12;;;13.59;59.12
64792;BME280;51226;47.504;19.074;2023-02-18T01:15:07;100455.19;;;13.71;58.71
64792;BME280;51226;47.504;19.074;2023-02-18T01:18:11;100448.94;;;13.68;58.79
64792;BME280;51226;47.504;19.074;2023-02-18T01:21:15;100439.38;;;13.68;58.77
64792;BME280;51226;47.504;19.074;2023-02-18T01:24:18;100449.97;;;13.73;58.64
64792;BME280;51226;47.504;19.074;2023-02-18T01:27:21;100449.03;;;13.71;58.70
64792;BME280;51226;47.504;19.074;2023-02-18T01:30:24;100440.59;;;13.83;58.24
64792;BME280;51226;47.504;19.074;2023-02-18T01:33:26;100435.41;;;13.84;58.16
64792;BME280;51226;47.504;19.074;2023-02-18T01:36:29;100437.34;;;13.93;57.86
64792;BME280;51226;47.504;19.074;2023-02-18T01:39:32;100440.94;;;13.95;57.76
64792;BME280;51226;47.504;19.074;2023-02-18T01:42:35;100426.25;;;14.02;57.44
64792;BME280;51226;47.504;19.074;2023-02-18T01:49:05;100426.87;;;13.93;57.83
64792;BME280;51226;47.504;19.074;2023-02-18T01:52:16;100430.56;;;14.01;57.58
64792;BME280;51226;47.504;19.074;2023-02-18T01:55:20;100428.94;;;14.06;57.29
64792;BME280;51226;47.504;19.074;2023-02-18T01:58:23;100429.69;;;14.01;57.43
64792;BME280;51226;47.504;19.074;2023-02-18T02:01:26;100442.19;;;14.11;57.01
64792;BME280;51226;47.504;19.074;2023-02-18T02:04:29;100427.06;;;14.01;57.31
64792;BME280;51226;47.504;19.074;2023-02-18T02:07:33;100419.44;;;14.10;57.00
64792;BME280;51226;47.504;19.074;2023-02-18T02:10:50;100409.91;;;14.14;56.80
64792;BME280;51226;47.504;19.074;2023-02-18T02:14:24;100412.63;;;14.17;56.69
64792;BME280;51226;47.504;19.074;2023-02-18T02:21:50;100401.41;;;14.24;56.29
64792;BME280;51226;47.504;19.074;2023-02-18T02:28:02;100402.19;;;14.21;56.26
64792;BME280;51226;47.504;19.074;2023-02-18T02:31:20;100397.00;;;14.23;56.23
64792;BME280;51226;47.504;19.074;2023-02-18T02:38:09;100420.47;;;14.17;56.32
64792;BME280;51226;47.504;19.074;2023-02-18T02:41:32;100417.91;;;14.18;56.21
64792;BME280;51226;47.504;19.074;2023-02-18T02:44:55;100405.78;;;14.23;56.01
64792;BME280;51226;47.504;19.074;2023-02-18T02:51:11;100398.91;;;14.29;55.79
64792;BME280;51226;47.504;19.074;2023-02-18T02:54:24;100405.84;;;14.28;55.73
64792;BME280;51226;47.504;19.074;2023-02-18T03:11:12;100421.56;;;14.26;55.74
64792;BME280;51226;47.504;19.074;2023-02-18T03:14:27;100418.09;;;14.27;55.77
64792;BME280;51226;47.504;19.074;2023-02-18T03:18:42;100430.50;;;14.35;55.47
64792;BME280;51226;47.504;19.074;2023-02-18T03:21:28;100438.31;;;14.33;55.55
64792;BME280;51226;47.504;19.074;2023-02-18T03:24:46;100444.47;;;14.34;55.55
64792;BME280;51226;47.504;19.074;2023-02-18T03:27:55;100454.91;;;14.31;55.71
64792;BME280;51226;47.504;19.074;2023-02-18T03:31:11;100434.00;;;14.34;55.70
64792;BME280;51226;47.504;19.074;2023-02-18T03:34:22;100456.50;;;14.24;55.88
64792;BME280;51226;47.504;19.074;2023-02-18T03:37:30;100449.56;;;14.27;55.78
64792;BME280;51226;47.504;19.074;2023-02-18T03:40:33;100442.47;;;14.22;55.99
64792;BME280;51226;47.504;19.074;2023-02-18T03:43:36;100437.53;;;14.36;55.51
64792;BME280;51226;47.504;19.074;2023-02-18T03:46:42;100439.84;;;14.22;55.96
64792;BME280;51226;47.504;19.074;2023-02-18T03:49:46;100433.69;;;14.21;55.97
64792;BME280;51226;47.504;19.074;2023-02-18T03:52:49;100445.75;;;14.15;56.27
64792;BME280;51226;47.504;19.074;2023-02-18T03:55:52;100449.28;;;14.15;56.34
64792;BME280;51226;47.504;19.074;2023-02-18T03:58:55;100443.78;;;14.04;56.74
64792;BME280;51226;47.504;19.074;2023-02-18T04:01:58;100449.09;;;14.07;56.59
64792;BME280;51226;47.504;19.074;2023-02-18T04:05:01;100450.00;;;14.09;56.57
64792;BME280;51226;47.504;19.074;2023-02-18T04:08:04;100442.06;;;14.06;56.64
64792;BME280;51226;47.504;19.074;2023-02-18T04:11:07;100450.09;;;14.13;56.52
64792;BME280;51226;47.504;19.074;2023-02-18T04:14:12;100448.00;;;13.99;56.86
64792;BME280;51226;47.504;19.074;2023-02-18T04:17:15;100454.00;;;13.94;57.16
64792;BME280;51226;47.504;19.074;2023-02-18T04:20:18;100446.97;;;13.93;57.24
64792;BME280;51226;47.504;19.074;2023-02-18T04:23:21;100430.16;;;13.84;57.55
64792;BME280;51226;47.504;19.074;2023-02-18T04:26:24;100453.25;;;13.99;57.18
64792;BME280;51226;47.504;19.074;2023-02-18T04:29:27;100447.13;;;13.99;57.30
64792;BME280;51226;47.504;19.074;2023-02-18T04:32:30;100452.38;;;13.99;57.27
64792;BME280;51226;47.504;19.074;2023-02-18T04:35:33;100449.59;;;13.93;57.56
64792;BME280;51226;47.504;19.074;2023-02-18T04:38:36;100456.41;;;13.86;57.82
64792;BME280;51226;47.504;19.074;2023-02-18T04:41:39;100444.19;;;13.85;57.90
64792;BME280;51226;47.504;19.074;2023-02-18T04:44:41;100443.25;;;13.84;58.07
64792;BME280;51226;47.504;19.074;2023-02-18T04:47:45;100470.31;;;13.82;58.20
64792;BME280;51226;47.504;19.074;2023-02-18T04:50:47;100464.97;;;13.79;58.25
64792;BME280;51226;47.504;19.074;2023-02-18T04:53:51;100483.28;;;13.77;58.31
64792;BME280;51226;47.504;19.074;2023-02-18T04:56:54;100489.06;;;13.97;57.68
64792;BME280;51226;47.504;19.074;2023-02-18T04:59:57;100499.25;;;13.86;58.08
64792;BME280;51226;47.504;19.074;2023-02-18T05:02:59;100485.34;;;13.89;58.02
64792;BME280;51226;47.504;19.074;2023-02-18T05:06:02;100492.16;;;13.82;58.31
64792;BME280;51226;47.504;19.074;2023-02-18T05:09:05;100512.34;;;13.85;58.20
64792;BME280;51226;47.504;19.074;2023-02-18T05:12:08;100516.59;;;13.81;59.16
64792;BME280;51226;47.504;19.074;2023-02-18T05:15:11;100518.97;;;13.72;59.86
64792;BME280;51226;47.504;19.074;2023-02-18T05:18:14;100511.06;;;13.70;60.39
64792;BME280;51226;47.504;19.074;2023-02-18T05:21:16;100521.28;;;13.61;60.68
64792;BME280;51226;47.504;19.074;2023-02-18T05:24:20;100518.63;;;13.60;61.03
64792;BME280;51226;47.504;19.074;2023-02-18T05:27:22;100522.88;;;13.56;61.22
64792;BME280;51226;47.504;19.074;2023-02-18T05:30:25;100524.34;;;13.46;61.52
64792;BME280;51226;47.504;19.074;2023-02-18T05:33:28;100530.22;;;13.38;61.94
64792;BME280;51226;47.504;19.074;2023-02-18T05:36:31;100532.81;;;13.36;62.09
64792;BME280;51226;47.504;19.074;2023-02-18T05:39:34;100544.97;;;13.34;62.19
64792;BME280;51226;47.504;19.074;2023-02-18T05:42:37;100543.19;;;13.33;62.26
64792;BME280;51226;47.504;19.074;2023-02-18T05:45:39;100538.53;;;13.24;62.67
64792;BME280;51226;47.504;19.074;2023-02-18T05:48:42;100540.00;;;13.14;63.31
64792;BME280;51226;47.504;19.074;2023-02-18T05:51:45;100544.53;;;13.20;62.87
64792;BME280;51226;47.504;19.074;2023-02-18T05:54:48;100562.78;;;13.17;62.97
64792;BME280;51226;47.504;19.074;2023-02-18T05:57:52;100563.56;;;13.14;63.00
64792;BME280;51226;47.504;19.074;2023-02-18T06:00:55;100561.84;;;13.15;62.89
64792;BME280;51226;47.504;19.074;2023-02-18T06:03:58;100570.69;;;13.19;62.76
64792;BME280;51226;47.504;19.074;2023-02-18T06:07:01;100565.44;;;13.19;62.80
64792;BME280;51226;47.504;19.074;2023-02-18T06:10:05;100575.81;;;13.15;63.10
64792;BME280;51226;47.504;19.074;2023-02-18T06:13:08;100584.22;;;13.32;61.85
64792;BME280;51226;47.504;19.074;2023-02-18T06:16:11;100590.97;;;13.26;61.73
64792;BME280;51226;47.504;19.074;2023-02-18T06:19:14;100593.75;;;13.30;61.54
64792;BME280;51226;47.504;19.074;2023-02-18T06:22:17;100600.81;;;13.33;60.86
64792;BME280;51226;47.504;19.074;2023-02-18T06:25:20;100596.22;;;13.26;60.90
64792;BME280;51226;47.504;19.074;2023-02-18T06:28:23;100604.59;;;13.14;61.57
64792;BME280;51226;47.504;19.074;2023-02-18T06:31:26;100608.84;;;13.10;61.49
64792;BME280;51226;47.504;19.074;2023-02-18T06:34:29;100598.31;;;13.09;61.46
64792;BME280;51226;47.504;19.074;2023-02-18T06:37:32;100614.81;;;13.06;61.62
64792;BME280;51226;47.504;19.074;2023-02-18T06:40:35;100604.94;;;13.25;61.26
64792;BME280;51226;47.504;19.074;2023-02-18T06:43:38;100610.22;;;13.28;61.30
64792;BME280;51226;47.504;19.074;2023-02-18T06:46:42;100609.34;;;13.27;61.12
64792;BME280;51226;47.504;19.074;2023-02-18T06:49:45;100600.13;;;13.39;60.68
64792;BME280;51226;47.504;19.074;2023-02-18T06:52:48;100598.19;;;13.33;60.91
64792;BME280;51226;47.504;19.074;2023-02-18T06:55:51;100593.06;;;13.36;60.91
64792;BME280;51226;47.504;19.074;2023-02-18T06:58:53;100613.19;;;13.37;61.20
64792;BME280;51226;47.504;19.074;2023-02-18T07:01:56;100594.06;;;13.41;61.46
64792;BME280;51226;47.504;19.074;2023-02-18T07:04:59;100603.81;;;13.45;62.11
64792;BME280;51226;47.504;19.074;2023-02-18T07:08:02;100610.72;;;13.42;62.74
64792;BME280;51226;47.504;19.074;2023-02-18T07:11:05;100611.59;;;13.42;63.19
64792;BME280;51226;47.504;19.074;2023-02-18T07:14:09;100616.16;;;13.49;63.25
64792;BME280;51226;47.504;19.074;2023-02-18T07:17:12;100606.63;;;13.51;63.39
64792;BME280;51226;47.504;19.074;2023-02-18T07:20:15;100623.91;;;13.45;63.90
64792;BME280;51226;47.504;19.074;2023-02-18T07:23:18;100612.91;;;13.57;63.56
64792;BME280;51226;47.504;19.074;2023-02-18T07:26:21;100627.84;;;13.61;63.44
64792;BME280;51226;47.504;19.074;2023-02-18T07:29:24;100624.50;;;13.65;63.13
64792;BME280;51226;47.504;19.074;2023-02-18T07:32:27;100628.56;;;13.85;62.22
64792;BME280;51226;47.504;19.074;2023-02-18T07:35:30;100626.09;;;13.90;61.83
64792;BME280;51226;47.504;19.074;2023-02-18T07:38:33;100626.78;;;13.84;62.35
64792;BME280;51226;47.504;19.074;2023-02-18T07:41:35;100611.09;;;13.86;62.32
64792;BME280;51226;47.504;19.074;2023-02-18T07:44:39;100622.88;;;14.00;61.58
64792;BME280;51226;47.504;19.074;2023-02-18T07:47:43;100607.34;;;14.08;61.38
64792;BME280;51226;47.504;19.074;2023-02-18T07:50:47;100603.22;;;14.18;61.12
64792;BME280;51226;47.504;19.074;2023-02-18T07:53:50;100605.63;;;14.42;60.00
64792;BME280;51226;47.504;19.074;2023-02-18T07:56:53;100616.44;;;14.54;59.32
64792;BME280;51226;47.504;19.074;2023-02-18T07:59:56;100606.34;;;14.70;58.85
64792;BME280;51226;47.504;19.074;2023-02-18T08:02:59;100605.88;;;14.86;57.79
64792;BME280;51226;47.504;19.074;2023-02-18T08:06:04;100606.03;;;14.92;57.64
64792;BME280;51226;47.504;19.074;2023-02-18T08:09:07;100610.78;;;15.09;56.65
64792;BME280;51226;47.504;19.074;2023-02-18T08:12:10;100608.25;;;15.13;56.54
64792;BME280;51226;47.504;19.074;2023-02-18T08:15:13;100602.03;;;15.10;56.72
64792;BME280;51226;47.504;19.074;2023-02-18T08:18:19;100612.03;;;15.26;56.34
64792;BME280;51226;47.504;19.074;2023-02-18T08:21:24;100612.38;;;15.42;56.08
64792;BME280;51226;47.504;19.074;2023-02-18T08:24:28;100602.41;;;15.66;54.88
64792;BME280;51226;47.504;19.074;2023-02-18T08:27:32;100611.22;;;15.70;54.82
64792;BME280;51226;47.504;19.074;2023-02-18T08:30:34;100613.87;;;15.71;54.84
64792;BME280;51226;47.504;19.074;2023-02-18T08:33:37;100615.78;;;15.76;54.44
64792;BME280;51226;47.504;19.074;2023-02-18T08:36:41;100608.81;;;15.78;54.19
64792;BME280;51226;47.504;19.074;2023-02-18T08:39:44;100612.34;;;15.80;53.87
64792;BME280;51226;47.504;19.074;2023-02-18T08:42:50;100606.28;;;15.82;54.16
64792;BME280;51226;47.504;19.074;2023-02-18T08:45:53;100612.63;;;15.95;53.23
64792;BME280;51226;47.504;19.074;2023-02-18T08:48:56;100616.78;;;15.82;53.96
64792;BME280;51226;47.504;19.074;2023-02-18T08:52:01;100607.31;;;15.92;53.99
64792;BME280;51226;47.504;19.074;2023-02-18T08:55:12;100614.75;;;16.62;52.11
64792;BME280;51226;47.504;19.074;2023-02-18T08:58:24;100613.59;;;16.98;50.57
64792;BME280;51226;47.504;19.074;2023-02-18T09:01:31;100613.78;;;17.10;50.39
64792;BME280;51226;47.504;19.074;2023-02-18T09:04:36;100611.97;;;17.04;50.14
64792;BME280;51226;47.504;19.074;2023-02-18T09:07:58;100614.62;;;17.06;50.20
64792;BME280;51226;47.504;19.074;2023-02-18T09:11:42;100622.31;;;16.94;50.49
64792;BME280;51226;47.504;19.074;2023-02-18T09:14:54;100612.88;;;16.55;51.33
64792;BME280;51226;47.504;19.074;2023-02-18T09:22:03;100605.16;;;16.17;52.50
64792;BME280;51226;47.504;19.074;2023-02-18T09:25:12;100603.69;;;16.31;52.46
64792;BME280;51226;47.504;19.074;2023-02-18T09:28:39;100597.94;;;16.55;51.70
64792;BME280;51226;47.504;19.074;2023-02-18T09:32:02;100586.66;;;16.61;51.62
64792;BME280;51226;47.504;19.074;2023-02-18T09:35:28;100592.94;;;16.72;53.76
64792;BME280;51226;47.504;19.074;2023-02-18T09:38:32;100594.00;;;16.30;66.08
64792;BME280;51226;47.504;19.074;2023-02-18T09:44:52;100594.34;;;15.57;65.90
64792;BME280;51226;47.504;19.074;2023-02-18T09:47:57;100598.00;;;15.67;69.36
64792;BME280;51226;47.504;19.074;2023-02-18T09:51:04;100591.34;;;17.38;65.20
64792;BME280;51226;47.504;19.074;2023-02-18T09:54:11;100583.91;;;21.00;49.14
64792;BME280;51226;47.504;19.074;2023-02-18T09:57:30;100583.09;;;22.71;41.59
64792;BME280;51226;47.504;19.074;2023-02-18T10:00:41;100578.75;;;22.62;46.79
64792;BME280;51226;47.504;19.074;2023-02-18T10:03:46;100596.84;;;22.00;50.79
64792;BME280;51226;47.504;19.074;2023-02-18T10:06:50;100580.28;;;21.41;44.70
64792;BME280;51226;47.504;19.074;2023-02-18T10:09:56;100588.34;;;20.85;47.00
64792;BME280;51226;47.504;19.074;2023-02-18T10:13:01;100591.81;;;20.16;45.66
64792;BME280;51226;47.504;19.074;2023-02-18T10:16:06;100589.72;;;19.35;46.90
64792;BME280;51226;47.504;19.074;2023-02-18T10:22:17;100585.38;;;18.30;46.89
64792;BME280;51226;47.504;19.074;2023-02-18T10:25:23;100583.72;;;17.60;51.98
64792;BME280;51226;47.504;19.074;2023-02-18T10:28:27;100592.00;;;17.23;50.71
64792;BME280;51226;47.504;19.074;2023-02-18T10:31:34;100579.19;;;16.89;52.78
64792;BME280;51226;47.504;19.074;2023-02-18T10:51:41;100569.41;;;17.41;48.61
64792;BME280;51226;47.504;19.074;2023-02-18T10:58:00;100549.06;;;18.03;48.64
64792;BME280;51226;47.504;19.074;2023-02-18T11:01:06;100554.22;;;17.93;48.41
64792;BME280;51226;47.504;19.074;2023-02-18T11:04:19;100561.22;;;17.88;50.24
64792;BME280;51226;47.504;19.074;2023-02-18T11:07:33;100563.84;;;17.88;49.33
64792;BME280;51226;47.504;19.074;2023-02-18T11:10:44;100551.66;;;18.00;48.91
64792;BME280;51226;47.504;19.074;2023-02-18T11:13:56;100554.94;;;17.80;48.65
64792;BME280;51226;47.504;19.074;2023-02-18T11:17:08;100556.44;;;17.58;49.73
64792;BME280;51226;47.504;19.074;2023-02-18T11:20:33;100546.81;;;17.62;49.34
64792;BME280;51226;47.504;19.074;2023-02-18T11:23:48;100530.34;;;17.12;51.23
64792;BME280;51226;47.504;19.074;2023-02-18T11:26:52;100529.16;;;16.89;52.57
64792;BME280;51226;47.504;19.074;2023-02-18T11:30:06;100515.78;;;16.76;53.00
64792;BME280;51226;47.504;19.074;2023-02-18T11:36:26;100503.56;;;16.81;54.13
64792;BME280;51226;47.504;19.074;2023-02-18T11:39:30;100508.56;;;17.24;52.87
64792;BME280;51226;47.504;19.074;2023-02-18T11:42:33;100500.00;;;18.28;49.79
64792;BME280;51226;47.504;19.074;2023-02-18T11:45:36;100504.50;;;18.41;48.61
64792;BME280;51226;47.504;19.074;2023-02-18T11:48:39;100496.47;;;18.29;49.10
64792;BME280;51226;47.504;19.074;2023-02-18T11:51:43;100499.03;;;18.17;49.69
64792;BME280;51226;47.504;19.074;2023-02-18T11:55:06;100492.84;;;18.13;50.23
64792;BME280;51226;47.504;19.074;2023-02-18T11:58:10;100489.34;;;18.17;49.88
64792;BME280;51226;47.504;19.074;2023-02-18T12:01:39;100467.75;;;18.74;48.37
64792;BME280;51226;47.504;19.074;2023-02-18T12:04:49;100464.59;;;19.55;46.69
64792;BME280;51226;47.504;19.074;2023-02-18T12:07:58;100447.94;;;19.90;45.40
64792;BME280;51226;47.504;19.074;2023-02-18T12:11:06;100441.69;;;20.66;43.44
64792;BME280;51226;47.504;19.074;2023-02-18T12:14:17;100442.47;;;21.04;42.17
64792;BME280;51226;47.504;19.074;2023-02-18T12:17:48;100428.41;;;20.79;41.67
64792;BME280;51226;47.504;19.074;2023-02-18T12:21:10;100427.59;;;20.30;42.45
64792;BME280;51226;47.504;19.074;2023-02-18T13:04:09;100373.63;;;20.73;39.48
64792;BME280;51226;47.504;19.074;2023-02-18T13:07:32;100363.09;;;20.68;39.41
64792;BME280;51226;47.504;19.074;2023-02-18T13:10:51;100352.44;;;20.76;39.49
64792;BME280;51226;47.504;19.074;2023-02-18T13:14:11;100349.72;;;20.91;38.81
64792;BME280;51226;47.504;19.074;2023-02-18T13:17:16;100353.88;;;21.37;38.05
64792;BME280;51226;47.504;19.074;2023-02-18T13:20:26;100340.75;;;22.24;37.00
64792;BME280;51226;47.504;19.074;2023-02-18T13:23:34;100336.53;;;23.47;34.41
64792;BME280;51226;47.504;19.074;2023-02-18T13:26:41;100327.88;;;24.81;31.84
64792;BME280;51226;47.504;19.074;2023-02-18T13:40:18;100306.81;;;27.08;27.79
64792;BME280;51226;47.504;19.074;2023-02-18T13:46:28;100316.62;;;25.06;31.89
64792;BME280;51226;47.504;19.074;2023-02-18T13:49:33;100318.91;;;23.93;33.44
64792;BME280;51226;47.504;19.074;2023-02-18T13:52:37;100305.97;;;23.16;33.98
64792;BME280;51226;47.504;19.074;2023-02-18T13:59:37;100282.53;;;22.02;36.15
64792;BME280;51226;47.504;19.074;2023-02-18T14:02:56;100283.06;;;21.47;37.36
64792;BME280;51226;47.504;19.074;2023-02-18T14:05:59;100276.28;;;21.04;38.20
64792;BME280;51226;47.504;19.074;2023-02-18T14:12:41;100273.12;;;20.27;41.20
64792;BME280;51226;47.504;19.074;2023-02-18T14:15:53;100260.84;;;19.96;41.57
64792;BME280;51226;47.504;19.074;2023-02-18T14:18:59;100252.06;;;19.77;42.22
64792;BME280;51226;47.504;19.074;2023-02-18T14:22:26;100252.06;;;19.43;43.92
64792;BME280;51226;47.504;19.074;2023-02-18T14:34:59;100237.84;;;18.70;45.46
64792;BME280;51226;47.504;19.074;2023-02-18T14:41:45;100235.25;;;18.77;44.73
64792;BME280;51226;47.504;19.074;2023-02-18T14:48:37;100228.16;;;18.63;46.46
64792;BME280;51226;47.504;19.074;2023-02-18T14:51:44;100214.94;;;18.60;45.22
64792;BME280;51226;47.504;19.074;2023-02-18T14:54:51;100224.63;;;18.55;45.14
64792;BME280;51226;47.504;19.074;2023-02-18T14:58:04;100213.06;;;18.25;47.27
64792;BME280;51226;47.504;19.074;2023-02-18T15:01:21;100207.75;;;18.13;47.21
64792;BME280;51226;47.504;19.074;2023-02-18T15:04:25;100200.72;;;18.13;46.25
64792;BME280;51226;47.504;19.074;2023-02-18T15:07:28;100206.78;;;17.94;47.02
64792;BME280;51226;47.504;19.074;2023-02-18T15:13:43;100219.63;;;17.41;45.96
64792;BME280;51226;47.504;19.074;2023-02-18T15:16:47;100204.75;;;16.55;47.34
64792;BME280;51226;47.504;19.074;2023-02-18T15:20:03;100216.50;;;16.09;48.63
64792;BME280;51226;47.504;19.074;2023-02-18T15:23:15;100214.44;;;15.87;48.55
64792;BME280;51226;47.504;19.074;2023-02-18T15:26:19;100201.56;;;15.46;49.12
64792;BME280;51226;47.504;19.074;2023-02-18T15:29:25;100205.78;;;15.34;49.32
64792;BME280;51226;47.504;19.074;2023-02-18T15:32:30;100207.25;;;15.15;49.36
64792;BME280;51226;47.504;19.074;2023-02-18T15:35:33;100207.53;;;14.82;49.83
64792;BME280;51226;47.504;19.074;2023-02-18T15:38:37;100199.78;;;14.42;51.18
64792;BME280;51226;47.504;19.074;2023-02-18T15:41:43;100206.56;;;14.33;51.22
64792;BME280;51226;47.504;19.074;2023-02-18T15:44:47;100209.81;;;14.19;51.63
64792;BME280;51226;47.504;19.074;2023-02-18T15:47:53;100203.31;;;14.00;52.31
64792;BME280;51226;47.504;19.074;2023-02-18T15:50:57;100197.81;;;13.89;52.51
64792;BME280;51226;47.504;19.074;2023-02-18T15:54:19;100193.09;;;13.73;52.96
64792;BME280;51226;47.504;19.074;2023-02-18T15:57:26;100202.06;;;13.43;53.89
64792;BME280;51226;47.504;19.074;2023-02-18T16:00:39;100203.47;;;13.30;54.06
64792;BME280;51226;47.504;19.074;2023-02-18T16:03:44;100206.63;;;13.17;54.47
64792;BME280;51226;47.504;19.074;2023-02-18T16:06:52;100201.97;;;13.05;54.83
64792;BME280;51226;47.504;19.074;2023-02-18T16:13:18;100209.53;;;12.94;54.94
64792;BME280;51226;47.504;19.074;2023-02-18T16:16:23;100207.44;;;12.81;55.12
64792;BME280;51226;47.504;19.074;2023-02-18T16:19:30;100196.69;;;12.69;55.24
64792;BME280;51226;47.504;19.074;2023-02-18T16:22:36;100210.44;;;12.62;55.54
64792;BME280;51226;47.504;19.074;2023-02-18T16:25:46;100213.91;;;12.60;55.35
64792;BME280;51226;47.504;19.074;2023-02-18T16:28:51;100203.13;;;12.48;55.64
64792;BME280;51226;47.504;19.074;2023-02-18T16:31:54;100201.06;;;12.36;56.10
64792;BME280;51226;47.504;19.074;2023-02-18T16:34:57;100209.63;;;12.32;56.25
64792;BME280;51226;47.504;19.074;2023-02-18T16:38:00;100204.22;;;12.25;56.50
64792;BME280;51226;47.504;19.074;2023-02-18T16:41:03;100197.00;;;12.17;56.60
64792;BME280;51226;47.504;19.074;2023-02-18T16:44:11;100188.97;;;12.10;56.99
64792;BME280;51226;47.504;19.074;2023-02-18T16:47:15;100195.66;;;12.00;57.30
64792;BME280;51226;47.504;19.074;2023-02-18T16:50:20;100194.59;;;11.93;57.58
64792;BME280;51226;47.504;19.074;2023-02-18T16:53:24;100197.84;;;11.87;57.65
64792;BME280;51226;47.504;19.074;2023-02-18T16:56:31;100181.31;;;11.87;57.84
64792;BME280;51226;47.504;19.074;2023-02-18T16:59:34;100188.22;;;11.85;57.86
64792;BME280;51226;47.504;19.074;2023-02-18T17:02:37;100203.91;;;11.85;57.99
64792;BME280;51226;47.504;19.074;2023-02-18T17:05:41;100209.69;;;11.75;58.18
64792;BME280;51226;47.504;19.074;2023-02-18T17:08:43;100207.81;;;11.71;58.46
64792;BME280;51226;47.504;19.074;2023-02-18T17:11:49;100197.22;;;11.66;58.68
64792;BME280;51226;47.504;19.074;2023-02-18T17:14:52;100201.56;;;11.65;58.59
64792;BME280;51226;47.504;19.074;2023-02-18T17:17:56;100197.94;;;11.60;58.75
64792;BME280;51226;47.504;19.074;2023-02-18T17:21:00;100201.56;;;11.65;58.78
64792;BME280;51226;47.504;19.074;2023-02-18T17:24:05;100200.59;;;11.62;58.74
64792;BME280;51226;47.504;19.074;2023-02-18T17:27:09;100205.63;;;11.56;59.00
64792;BME280;51226;47.504;19.074;2023-02-18T17:30:13;100202.28;;;11.60;58.63
64792;BME280;51226;47.504;19.074;2023-02-18T17:33:17;100198.69;;;11.56;58.74
64792;BME280;51226;47.504;19.074;2023-02-18T17:36:21;100204.59;;;11.50;59.11
64792;BME280;51226;47.504;19.074;2023-02-18T17:39:23;100194.00;;;11.46;59.13
64792;BME280;51226;47.504;19.074;2023-02-18T17:42:27;100197.34;;;11.42;59.42
64792;BME280;51226;47.504;19.074;2023-02-18T17:45:40;100189.37;;;11.37;59.58
64792;BME280;51226;47.504;19.074;2023-02-18T17:48:45;100188.41;;;11.34;59.63
64792;BME280;51226;47.504;19.074;2023-02-18T17:51:48;100201.19;;;11.26;59.79
64792;BME280;51226;47.504;19.074;2023-02-18T17:54:51;100181.22;;;11.26;59.81
64792;BME280;51226;47.504;19.074;2023-02-18T17:57:55;100181.84;;;11.19;60.16
64792;BME280;51226;47.504;19.074;2023-02-18T18:00:58;100174.75;;;11.15;60.36
64792;BME280;51226;47.504;19.074;2023-02-18T18:04:01;100173.66;;;11.08;60.59
64792;BME280;51226;47.504;19.074;2023-02-18T18:07:04;100175.41;;;11.08;60.67
64792;BME280;51226;47.504;19.074;2023-02-18T18:10:07;100175.31;;;11.05;60.87
64792;BME280;51226;47.504;19.074;2023-02-18T18:13:20;100176.13;;;11.04;61.07
64792;BME280;51226;47.504;19.074;2023-02-18T18:16:24;100178.69;;;11.02;61.11
64792;BME280;51226;47.504;19.074;2023-02-18T18:19:27;100181.59;;;11.11;61.01
64792;BME280;51226;47.504;19.074;2023-02-18T18:22:30;100185.00;;;11.09;60.95
64792;BME280;51226;47.504;19.074;2023-02-18T18:25:36;100183.25;;;11.08;61.04
64792;BME280;51226;47.504;19.074;2023-02-18T18:28:39;100172.91;;;11.11;61.24
64792;BME280;51226;47.504;19.074;2023-02-18T18:31:42;100177.47;;;11.18;60.97